createdAt,value
2019-01-23T00:00:10.177Z,87.92
2019-01-23T00:02:41.935Z,87.93
2019-01-23T00:05:14.218Z,87.97
2019-01-23T00:07:46.687Z,87.98
2019-01-23T00:10:18.790Z,88.02
2019-01-23T00:12:50.609Z,88.07
2019-01-23T00:15:22.902Z,88.06
2019-01-23T00:17:55.472Z,88.11
2019-01-23T00:20:28.336Z,88.07
2019-01-23T00:23:00.405Z,88.10
2019-01-23T00:25:32.473Z,88.12
2019-01-23T00:28:04.350Z,88.13
2019-01-23T00:30:36.132Z,88.08
2019-01-23T00:33:08.011Z,88.06
2019-01-23T00:35:40.112Z,88.02
2019-01-23T00:38:30.572Z,88.02
2019-01-23T00:41:20.659Z,88.05
2019-01-23T00:44:10.989Z,88.00
2019-01-23T00:47:00.851Z,87.94
2019-01-23T00:49:51.379Z,87.98
2019-01-23T00:52:41.475Z,87.95
2019-01-23T00:55:31.657Z,87.95
2019-01-23T00:58:23.504Z,87.95
2019-01-23T01:01:14.927Z,87.91
2019-01-23T01:03:45.845Z,87.88
2019-01-23T01:06:17.624Z,87.88
2019-01-23T01:08:49.401Z,87.88
2019-01-23T01:11:21.311Z,87.83
2019-01-23T01:13:54.506Z,87.83
2019-01-23T01:16:30.313Z,87.81
2019-01-23T01:19:02.131Z,87.83
2019-01-23T01:21:33.972Z,87.80
2019-01-23T01:24:06.148Z,87.77
2019-01-23T01:26:38.038Z,87.78
2019-01-23T01:29:09.819Z,87.77
2019-01-23T01:31:41.619Z,87.76
2019-01-23T01:34:13.397Z,87.69
2019-01-23T01:36:45.294Z,87.70
2019-01-23T01:39:17.173Z,87.68
2019-01-23T01:41:49.116Z,87.65
2019-01-23T01:44:20.910Z,87.67
2019-01-23T01:46:53.069Z,87.63
2019-01-23T01:49:24.852Z,87.62
2019-01-23T01:51:56.741Z,87.61
2019-01-23T01:54:28.523Z,87.68
2019-01-23T01:57:00.700Z,87.68
2019-01-23T01:59:32.492Z,87.68
2019-01-23T02:02:04.307Z,87.64
2019-01-23T02:04:36.196Z,87.73
2019-01-23T02:07:08.063Z,87.71
2019-01-23T02:09:40.209Z,87.65
2019-01-23T02:12:12.277Z,87.73
2019-01-23T02:14:44.149Z,87.72
2019-01-23T02:17:15.930Z,87.74
2019-01-23T02:19:47.814Z,87.65
2019-01-23T02:22:19.916Z,87.66
2019-01-23T02:25:10.861Z,87.67
2019-01-23T02:27:43.649Z,87.66
2019-01-23T02:30:18.438Z,87.67
2019-01-23T02:32:50.504Z,87.66
2019-01-23T02:35:22.269Z,87.65
2019-01-23T02:37:54.487Z,87.62
2019-01-23T02:40:26.625Z,87.59
2019-01-23T02:42:58.391Z,87.63
2019-01-23T02:45:30.305Z,87.64
2019-01-23T02:48:02.091Z,87.62
2019-01-23T02:50:33.887Z,87.66
2019-01-23T02:53:05.713Z,87.63
2019-01-23T02:55:37.620Z,87.66
2019-01-23T02:58:09.835Z,87.62
2019-01-23T03:00:41.622Z,87.59
2019-01-23T03:03:13.521Z,87.62
2019-01-23T03:05:45.370Z,87.60
2019-01-23T03:08:17.391Z,87.59
2019-01-23T03:10:49.169Z,87.55
2019-01-23T03:13:21.007Z,87.55
2019-01-23T03:15:52.855Z,87.54
2019-01-23T03:18:24.663Z,87.53
2019-01-23T03:20:56.469Z,87.53
2019-01-23T03:23:28.333Z,87.52
2019-01-23T03:26:00.241Z,87.52
2019-01-23T03:28:35.242Z,87.46
2019-01-23T03:31:07.018Z,87.44
2019-01-23T03:33:38.784Z,87.45
2019-01-23T03:36:10.583Z,87.43
2019-01-23T03:38:42.333Z,87.45
2019-01-23T03:41:14.399Z,87.42
2019-01-23T03:43:46.174Z,87.43
2019-01-23T03:46:18.171Z,87.42
2019-01-23T03:48:49.949Z,87.42
2019-01-23T03:51:21.719Z,87.43
2019-01-23T03:53:53.569Z,87.46
2019-01-23T03:56:25.378Z,87.45
2019-01-23T03:58:57.246Z,87.50
2019-01-23T04:01:29.224Z,87.48
2019-01-23T04:04:02.098Z,87.50
2019-01-23T04:06:34.012Z,87.45
2019-01-23T04:09:08.792Z,87.43
2019-01-23T04:11:40.589Z,87.44
2019-01-23T04:14:12.483Z,87.43
2019-01-23T04:16:44.303Z,87.38
2019-01-23T04:19:16.420Z,87.34
2019-01-23T04:21:48.263Z,87.38
2019-01-23T04:24:21.087Z,87.34
2019-01-23T04:26:53.282Z,87.33
2019-01-23T04:29:25.046Z,87.30
2019-01-23T04:31:56.821Z,87.32
2019-01-23T04:34:28.915Z,87.32
2019-01-23T04:37:00.698Z,87.30
2019-01-23T04:39:32.477Z,87.25
2019-01-23T04:42:04.564Z,87.27
2019-01-23T04:44:36.332Z,87.25
2019-01-23T04:47:08.105Z,87.28
2019-01-23T04:49:39.896Z,87.25
2019-01-23T04:52:34.420Z,87.21
2019-01-23T04:55:06.691Z,87.22
2019-01-23T04:57:38.764Z,87.23
2019-01-23T05:00:12.593Z,87.20
2019-01-23T05:02:44.519Z,87.21
2019-01-23T05:05:16.439Z,87.18
2019-01-23T05:07:48.652Z,87.21
2019-01-23T05:10:20.837Z,87.20
2019-01-23T05:12:52.615Z,87.18
2019-01-23T05:15:24.743Z,87.14
2019-01-23T05:17:56.914Z,87.15
2019-01-23T05:20:28.984Z,87.15
2019-01-23T05:23:00.801Z,87.13
2019-01-23T05:25:32.598Z,87.10
2019-01-23T05:28:04.395Z,87.15
2019-01-23T05:30:36.217Z,87.10
2019-01-23T05:33:08.035Z,87.09
2019-01-23T05:35:39.975Z,87.10
2019-01-23T05:38:11.880Z,87.13
2019-01-23T05:40:43.766Z,87.09
2019-01-23T05:43:15.655Z,87.08
2019-01-23T05:45:47.545Z,87.04
2019-01-23T05:48:19.760Z,87.04
2019-01-23T05:50:51.813Z,87.00
2019-01-23T05:53:24.572Z,87.00
2019-01-23T05:55:57.662Z,86.98
2019-01-23T05:58:29.782Z,87.01
2019-01-23T06:01:01.557Z,86.98
2019-01-23T06:03:33.662Z,86.98
2019-01-23T06:06:05.514Z,86.98
2019-01-23T06:08:37.294Z,86.92
2019-01-23T06:11:09.055Z,86.99
2019-01-23T06:13:40.846Z,86.95
2019-01-23T06:16:12.616Z,86.93
2019-01-23T06:18:44.397Z,86.91
2019-01-23T06:21:16.312Z,86.92
2019-01-23T06:23:48.134Z,86.92
2019-01-23T06:26:20.000Z,86.88
2019-01-23T06:28:51.963Z,86.90
2019-01-23T06:31:24.144Z,86.91
2019-01-23T06:33:55.937Z,86.92
2019-01-23T06:36:27.716Z,86.89
2019-01-23T06:38:59.920Z,86.93
2019-01-23T06:41:32.058Z,86.86
2019-01-23T06:44:03.839Z,86.86
2019-01-23T06:46:35.683Z,86.86
2019-01-23T06:49:07.559Z,86.81
2019-01-23T06:51:39.603Z,86.79
2019-01-23T06:54:11.956Z,86.81
2019-01-23T06:56:43.846Z,86.93
2019-01-23T06:59:15.650Z,87.06
2019-01-23T07:01:47.872Z,87.15
2019-01-23T07:04:20.017Z,87.23
2019-01-23T07:06:51.844Z,87.28
2019-01-23T07:09:23.753Z,87.28
2019-01-23T07:11:55.550Z,87.24
2019-01-23T07:14:27.353Z,87.27
2019-01-23T07:16:59.167Z,87.25
2019-01-23T07:19:30.943Z,87.22
2019-01-23T07:22:03.084Z,87.22
2019-01-23T07:24:34.885Z,87.21
2019-01-23T07:27:06.974Z,87.16
2019-01-23T07:29:39.169Z,87.14
2019-01-23T07:32:11.219Z,87.08
2019-01-23T07:34:43.123Z,87.03
2019-01-23T07:37:14.946Z,87.00
2019-01-23T07:39:46.999Z,86.93
2019-01-23T07:42:19.076Z,86.89
2019-01-23T07:44:50.976Z,86.86
2019-01-23T07:47:22.752Z,86.86
2019-01-23T07:49:54.590Z,86.76
2019-01-23T07:52:26.465Z,86.73
2019-01-23T07:54:58.309Z,86.63
2019-01-23T07:57:30.545Z,86.57
2019-01-23T08:00:02.643Z,86.47
2019-01-23T08:02:34.450Z,86.44
2019-01-23T08:05:08.046Z,86.37
2019-01-23T08:07:41.934Z,86.28
2019-01-23T08:10:15.783Z,86.24
2019-01-23T08:12:48.108Z,86.17
2019-01-23T08:15:33.591Z,86.16
2019-01-23T08:18:06.321Z,86.07
2019-01-23T08:20:38.664Z,85.92
2019-01-23T08:23:10.475Z,85.91
2019-01-23T08:25:42.417Z,85.86
2019-01-23T08:28:14.979Z,85.80
2019-01-23T08:30:47.465Z,85.72
2019-01-23T08:33:19.896Z,85.73
2019-01-23T08:35:52.329Z,85.55
2019-01-23T08:38:24.469Z,85.65
2019-01-23T08:40:56.344Z,85.71
2019-01-23T08:43:28.401Z,85.86
2019-01-23T08:46:00.414Z,85.93
2019-01-23T08:48:32.239Z,85.97
2019-01-23T08:51:04.715Z,85.89
2019-01-23T08:53:37.131Z,85.93
2019-01-23T08:56:09.214Z,85.89
2019-01-23T08:58:41.111Z,85.91
2019-01-23T09:01:13.023Z,85.85
2019-01-23T09:03:44.812Z,85.80
2019-01-23T09:06:16.680Z,85.74
2019-01-23T09:08:48.578Z,85.72
2019-01-23T09:11:20.491Z,85.64
2019-01-23T09:13:52.658Z,85.65
2019-01-23T09:16:24.499Z,85.62
2019-01-23T09:18:56.361Z,85.51
2019-01-23T09:21:28.650Z,85.48
2019-01-23T09:24:01.336Z,85.34
2019-01-23T09:26:33.539Z,85.27
2019-01-23T09:29:05.404Z,85.27
2019-01-23T09:32:10.517Z,85.14
2019-01-23T09:35:04.747Z,84.97
2019-01-23T09:38:30.877Z,84.90
2019-01-23T09:41:41.771Z,84.78
2019-01-23T09:45:06.116Z,84.52
2019-01-23T09:47:52.268Z,84.25
2019-01-23T09:50:56.705Z,84.18
2019-01-23T09:53:44.909Z,84.05
2019-01-23T09:56:19.219Z,83.77
2019-01-23T09:58:51.379Z,83.60
2019-01-23T10:01:23.194Z,83.31
2019-01-23T10:03:55.127Z,83.35
2019-01-23T10:06:26.986Z,83.11
2019-01-23T10:08:58.839Z,82.85
2019-01-23T10:11:31.006Z,82.79
2019-01-23T10:14:02.878Z,82.74
2019-01-23T10:16:35.034Z,82.60
2019-01-23T10:19:06.833Z,82.43
2019-01-23T10:21:39.166Z,82.38
2019-01-23T10:24:11.410Z,82.22
2019-01-23T10:26:43.297Z,82.24
2019-01-23T10:29:15.155Z,82.17
2019-01-23T10:31:47.433Z,81.96
2019-01-23T10:34:19.776Z,81.95
2019-01-23T10:36:51.871Z,81.73
2019-01-23T10:39:23.703Z,81.66
2019-01-23T10:41:55.588Z,81.49
2019-01-23T10:44:27.447Z,81.32
2019-01-23T10:46:59.251Z,81.43
2019-01-23T10:49:31.134Z,81.20
2019-01-23T10:52:02.959Z,81.22
2019-01-23T10:54:35.060Z,81.04
2019-01-23T10:57:06.848Z,80.99
2019-01-23T10:59:38.627Z,80.83
2019-01-23T11:02:10.895Z,80.92
2019-01-23T11:04:43.016Z,80.96
2019-01-23T11:07:15.244Z,80.57
2019-01-23T11:09:47.407Z,80.68
2019-01-23T11:12:19.191Z,80.39
2019-01-23T11:14:51.019Z,80.55
2019-01-23T11:17:22.842Z,80.34
2019-01-23T11:19:54.608Z,80.35
2019-01-23T11:22:26.822Z,80.41
2019-01-23T11:25:04.250Z,80.27
2019-01-23T11:27:36.188Z,80.30
2019-01-23T11:30:12.670Z,80.19
2019-01-23T11:32:44.458Z,80.02
2019-01-23T11:35:16.377Z,80.04
2019-01-23T11:37:48.247Z,79.94
2019-01-23T11:40:29.589Z,79.88
2019-01-23T11:43:01.504Z,79.96
2019-01-23T11:45:33.604Z,79.94
2019-01-23T11:48:05.701Z,79.85
2019-01-23T11:50:37.552Z,79.89
2019-01-23T11:53:09.368Z,79.76
2019-01-23T11:55:41.139Z,79.75
2019-01-23T11:58:13.282Z,79.64
2019-01-23T12:00:45.295Z,79.43
2019-01-23T12:03:36.545Z,79.84
2019-01-23T12:06:08.661Z,80.38
2019-01-23T12:08:41.194Z,80.45
2019-01-23T12:11:13.367Z,80.24
2019-01-23T12:13:45.217Z,80.13
2019-01-23T12:16:17.122Z,79.99
2019-01-23T12:18:48.914Z,80.06
2019-01-23T12:21:20.785Z,79.95
2019-01-23T12:23:58.231Z,79.79
2019-01-23T12:26:26.072Z,79.93
2019-01-23T12:28:58.207Z,79.77
2019-01-23T12:31:34.816Z,79.73
2019-01-23T12:34:03.832Z,79.61
2019-01-23T12:36:35.729Z,79.45
2019-01-23T12:39:09.327Z,79.61
2019-01-23T12:41:41.101Z,79.49
2019-01-23T12:44:12.887Z,79.47
2019-01-23T12:46:45.113Z,79.37
2019-01-23T12:49:17.534Z,79.12
2019-01-23T12:51:49.682Z,79.29
2019-01-23T12:54:21.462Z,79.34
2019-01-23T12:56:56.349Z,79.08
2019-01-23T12:59:28.578Z,79.10
2019-01-23T13:02:01.007Z,79.06
2019-01-23T13:04:32.823Z,78.80
2019-01-23T13:07:04.686Z,78.94
2019-01-23T13:09:36.514Z,78.98
2019-01-23T13:12:08.371Z,78.63
2019-01-23T13:14:40.161Z,78.87
2019-01-23T13:17:12.473Z,78.57
2019-01-23T13:19:44.821Z,78.57
2019-01-23T13:22:16.898Z,78.41
2019-01-23T13:24:48.714Z,78.19
2019-01-23T13:27:20.831Z,78.16
2019-01-23T13:29:52.632Z,78.16
2019-01-23T13:32:29.264Z,77.93
2019-01-23T13:35:01.128Z,77.97
2019-01-23T13:37:32.968Z,77.87
2019-01-23T13:40:06.078Z,77.86
2019-01-23T13:42:37.848Z,77.65
2019-01-23T13:45:10.609Z,77.88
2019-01-23T13:47:42.775Z,77.87
2019-01-23T13:50:14.639Z,77.75
2019-01-23T13:52:46.697Z,78.04
2019-01-23T13:55:19.778Z,77.77
2019-01-23T13:57:50.679Z,77.76
2019-01-23T14:00:40.047Z,77.97
2019-01-23T14:03:12.881Z,77.68
2019-01-23T14:05:44.763Z,77.65
2019-01-23T14:08:16.528Z,77.73
2019-01-23T14:10:48.436Z,77.93
2019-01-23T14:13:24.436Z,77.92
2019-01-23T14:15:56.333Z,77.87
2019-01-23T14:18:28.114Z,77.85
2019-01-23T14:20:59.923Z,78.03
2019-01-23T14:23:31.684Z,78.10
2019-01-23T14:26:03.800Z,77.92
2019-01-23T14:28:36.808Z,77.85
2019-01-23T14:31:08.148Z,77.97
2019-01-23T14:33:39.856Z,77.85
2019-01-23T14:36:11.894Z,78.07
2019-01-23T14:38:43.686Z,77.82
2019-01-23T14:41:15.473Z,77.74
2019-01-23T14:43:47.531Z,77.63
2019-01-23T14:46:19.345Z,77.92
2019-01-23T14:48:51.138Z,77.72
2019-01-23T14:51:22.974Z,77.71
2019-01-23T14:53:54.843Z,77.71
2019-01-23T14:56:26.650Z,77.71
2019-01-23T14:58:58.431Z,77.63
2019-01-23T15:01:30.847Z,77.57
2019-01-23T15:04:03.159Z,77.62
2019-01-23T15:06:35.033Z,77.63
2019-01-23T15:09:09.054Z,77.56
2019-01-23T15:11:41.149Z,77.58
2019-01-23T15:14:13.039Z,77.89
2019-01-23T15:16:44.921Z,78.09
2019-01-23T15:19:17.055Z,78.18
2019-01-23T15:21:49.290Z,78.44
2019-01-23T15:24:21.738Z,78.52
2019-01-23T15:26:53.521Z,78.79
2019-01-23T15:29:25.501Z,79.12
2019-01-23T15:31:57.669Z,79.50
2019-01-23T15:34:29.425Z,79.86
2019-01-23T15:37:01.216Z,80.11
2019-01-23T15:39:32.979Z,80.45
2019-01-23T15:42:04.891Z,80.72
2019-01-23T15:44:36.705Z,80.96
2019-01-23T15:47:08.826Z,81.15
2019-01-23T15:49:40.881Z,81.30
2019-01-23T15:52:12.710Z,81.51
2019-01-23T15:54:44.475Z,81.66
2019-01-23T15:57:16.262Z,81.88
2019-01-23T15:59:48.073Z,82.18
2019-01-23T16:02:24.324Z,82.42
2019-01-23T16:04:53.503Z,82.59
2019-01-23T16:07:25.463Z,82.74
2019-01-23T16:09:57.266Z,82.91
2019-01-23T16:12:29.285Z,83.04
2019-01-23T16:15:01.179Z,83.31
2019-01-23T16:17:34.147Z,83.49
2019-01-23T16:20:07.314Z,83.61
2019-01-23T16:22:39.456Z,83.79
2019-01-23T16:25:12.823Z,84.04
2019-01-23T16:27:44.816Z,84.21
2019-01-23T16:30:21.521Z,84.41
2019-01-23T16:32:53.719Z,84.58
2019-01-23T16:35:25.508Z,84.74
2019-01-23T16:37:57.944Z,84.93
2019-01-23T16:40:30.387Z,85.06
2019-01-23T16:43:02.471Z,85.18
2019-01-23T16:45:34.250Z,85.32
2019-01-23T16:48:06.252Z,85.46
2019-01-23T16:50:38.069Z,85.59
2019-01-23T16:53:10.005Z,85.73
2019-01-23T16:55:41.780Z,85.85
2019-01-23T16:58:13.824Z,85.95
2019-01-23T17:00:46.465Z,86.05
2019-01-23T17:03:18.697Z,86.14
2019-01-23T17:05:50.658Z,86.29
2019-01-23T17:08:22.734Z,86.35
2019-01-23T17:10:54.509Z,86.43
2019-01-23T17:13:26.286Z,86.55
2019-01-23T17:15:58.052Z,86.66
2019-01-23T17:18:30.038Z,86.74
2019-01-23T17:21:02.199Z,86.80
2019-01-23T17:23:34.014Z,86.88
2019-01-23T17:26:06.137Z,86.96
2019-01-23T17:28:38.013Z,87.04
2019-01-23T17:31:09.848Z,87.12
2019-01-23T17:33:41.663Z,87.21
2019-01-23T17:36:13.992Z,87.27
2019-01-23T17:38:46.278Z,87.37
2019-01-23T17:41:18.513Z,87.44
2019-01-23T17:43:51.330Z,87.51
2019-01-23T17:46:23.764Z,87.62
2019-01-23T17:48:56.336Z,87.72
2019-01-23T17:51:28.620Z,87.77
2019-01-23T17:54:00.407Z,87.85
2019-01-23T17:56:32.383Z,87.92
2019-01-23T17:59:04.397Z,88.00
2019-01-23T18:01:36.663Z,88.08
2019-01-23T18:04:08.747Z,88.17
2019-01-23T18:06:40.805Z,88.25
2019-01-23T18:09:12.632Z,88.29
2019-01-23T18:11:44.495Z,88.36
2019-01-23T18:14:16.659Z,88.41
2019-01-23T18:16:48.491Z,88.48
2019-01-23T18:19:20.356Z,88.54
2019-01-23T18:21:52.278Z,88.61
2019-01-23T18:24:24.241Z,88.61
2019-01-23T18:26:57.179Z,88.68
2019-01-23T18:29:29.405Z,88.68
2019-01-23T18:32:09.357Z,88.75
2019-01-23T18:35:32.975Z,88.77
2019-01-23T18:38:23.770Z,88.81
2019-01-23T18:41:45.637Z,88.88
2019-01-23T18:45:11.044Z,88.92
2019-01-23T18:48:34.575Z,88.97
2019-01-23T18:51:25.604Z,89.03
2019-01-23T18:53:57.409Z,89.08
2019-01-23T18:56:29.175Z,89.15
2019-01-23T18:59:02.118Z,89.19
2019-01-23T19:01:34.012Z,89.22
2019-01-23T19:04:06.659Z,89.26
2019-01-23T19:06:39.132Z,89.28
2019-01-23T19:09:13.509Z,89.32
2019-01-23T19:11:45.475Z,89.36
2019-01-23T19:14:17.263Z,89.42
2019-01-23T19:16:49.979Z,89.48
2019-01-23T19:19:22.636Z,89.50
2019-01-23T19:21:55.264Z,89.53
2019-01-23T19:24:27.792Z,89.58
2019-01-23T19:27:00.061Z,89.61
2019-01-23T19:29:31.950Z,89.65
2019-01-23T19:32:04.151Z,89.65
2019-01-23T19:34:36.535Z,89.69
2019-01-23T19:37:09.166Z,89.71
2019-01-23T19:39:41.415Z,89.74
2019-01-23T19:42:13.628Z,89.75
2019-01-23T19:44:45.775Z,89.77
2019-01-23T19:47:17.550Z,89.78
2019-01-23T19:49:49.589Z,89.77
2019-01-23T19:52:21.841Z,89.77
2019-01-23T19:54:53.851Z,89.78
2019-01-23T19:57:25.663Z,89.76
2019-01-23T19:59:57.974Z,89.76
2019-01-23T20:02:30.159Z,89.75
2019-01-23T20:05:01.978Z,89.74
2019-01-23T20:07:33.876Z,89.71
2019-01-23T20:10:14.324Z,89.73
2019-01-23T20:12:42.280Z,89.72
2019-01-23T20:15:15.949Z,89.69
2019-01-23T20:17:47.830Z,89.68
2019-01-23T20:20:19.675Z,89.68
2019-01-23T20:22:51.593Z,89.67
2019-01-23T20:25:25.621Z,89.64
2019-01-23T20:27:57.536Z,89.61
2019-01-23T20:30:35.769Z,89.62
2019-01-23T20:33:07.716Z,89.56
2019-01-23T20:35:39.585Z,89.52
2019-01-23T20:38:11.759Z,89.51
2019-01-23T20:40:43.952Z,89.47
2019-01-23T20:43:16.077Z,89.48
2019-01-23T20:45:47.929Z,89.44
2019-01-23T20:48:19.796Z,89.37
2019-01-23T20:50:52.026Z,89.38
2019-01-23T20:53:24.356Z,89.37
2019-01-23T20:55:56.300Z,89.34
2019-01-23T20:58:28.151Z,89.35
2019-01-23T21:01:00.014Z,89.33
2019-01-23T21:03:35.020Z,89.30
2019-01-23T21:06:05.420Z,89.29
2019-01-23T21:08:37.298Z,89.25
2019-01-23T21:11:09.226Z,89.22
2019-01-23T21:13:41.588Z,89.24
2019-01-23T21:16:13.634Z,89.15
2019-01-23T21:18:45.656Z,89.17
2019-01-23T21:21:17.788Z,89.14
2019-01-23T21:23:50.184Z,89.13
2019-01-23T21:26:22.413Z,89.12
2019-01-23T21:28:54.391Z,89.09
2019-01-23T21:31:26.301Z,89.06
2019-01-23T21:33:58.314Z,89.06
2019-01-23T21:36:30.326Z,89.04
2019-01-23T21:39:02.554Z,88.96
2019-01-23T21:41:34.771Z,88.96
2019-01-23T21:44:06.647Z,88.98
2019-01-23T21:46:38.516Z,88.95
2019-01-23T21:49:10.613Z,88.92
2019-01-23T21:51:42.525Z,88.89
2019-01-23T21:54:14.625Z,88.87
2019-01-23T21:56:46.405Z,88.83
2019-01-23T21:59:18.257Z,88.84
2019-01-23T22:01:50.495Z,88.82
2019-01-23T22:04:23.073Z,88.77
2019-01-23T22:06:55.125Z,88.76
2019-01-23T22:09:27.154Z,88.73
2019-01-23T22:11:59.031Z,88.71
2019-01-23T22:14:30.817Z,88.68
2019-01-23T22:17:02.660Z,88.65
2019-01-23T22:19:34.478Z,88.60
2019-01-23T22:22:07.143Z,88.60
2019-01-23T22:24:39.537Z,88.61
2019-01-23T22:27:11.440Z,88.58
2019-01-23T22:29:43.369Z,88.55
2019-01-23T22:32:15.170Z,88.54
2019-01-23T22:34:47.161Z,88.56
2019-01-23T22:37:19.220Z,88.51
2019-01-23T22:39:51.006Z,88.47
2019-01-23T22:42:23.642Z,88.47
2019-01-23T22:44:56.097Z,88.46
2019-01-23T22:47:28.310Z,88.43
2019-01-23T22:50:00.402Z,88.44
2019-01-23T22:52:32.232Z,88.42
2019-01-23T22:55:04.590Z,88.39
2019-01-23T22:57:36.893Z,88.37
2019-01-23T23:00:48.544Z,88.35
2019-01-23T23:03:22.094Z,88.37
2019-01-23T23:05:54.180Z,88.33
2019-01-23T23:08:26.242Z,88.34
2019-01-23T23:10:58.189Z,88.34
2019-01-23T23:13:30.492Z,88.34
2019-01-23T23:16:02.590Z,88.35
2019-01-23T23:18:34.559Z,88.33
2019-01-23T23:21:06.480Z,88.35
2019-01-23T23:23:38.231Z,88.34
2019-01-23T23:26:11.625Z,88.35
2019-01-23T23:28:45.027Z,88.34
2019-01-23T23:31:16.951Z,88.31
2019-01-23T23:33:49.164Z,88.29
2019-01-23T23:36:21.516Z,88.31
2019-01-23T23:38:53.613Z,88.28
2019-01-23T23:41:25.960Z,88.30
2019-01-23T23:43:58.099Z,88.27
2019-01-23T23:46:29.907Z,88.25
2019-01-23T23:49:01.984Z,88.26
2019-01-23T23:51:33.848Z,88.25
2019-01-23T23:54:05.877Z,88.22
2019-01-23T23:56:37.820Z,88.27
2019-01-23T23:59:09.730Z,88.24
